createdAt,value
2023-01-23T00:02:11.751Z,11.40
2023-01-23T00:04:38.512Z,10.90
2023-01-23T00:07:05.708Z,11.40
2023-01-23T00:09:33.027Z,11.40
2023-01-23T00:12:00.854Z,11.30
2023-01-23T00:14:33.600Z,11.60
2023-01-23T00:17:00.479Z,10.70
2023-01-23T00:19:27.192Z,10.60
2023-01-23T00:21:53.837Z,11.00
2023-01-23T00:24:20.667Z,10.30
2023-01-23T00:26:47.340Z,11.80
2023-01-23T00:29:15.101Z,10.70
2023-01-23T00:31:41.859Z,10.80
2023-01-23T00:34:14.045Z,11.30
2023-01-23T00:36:42.698Z,11.30
2023-01-23T00:39:17.527Z,10.20
2023-01-23T00:41:45.503Z,9.80
2023-01-23T00:44:12.487Z,9.50
2023-01-23T00:46:39.483Z,9.70
2023-01-23T00:49:06.420Z,10.80
2023-01-23T00:51:33.697Z,10.90
2023-01-23T00:54:01.023Z,10.70
2023-01-23T00:56:28.032Z,11.10
2023-01-23T00:58:54.721Z,10.60
2023-01-23T01:01:22.333Z,10.30
2023-01-23T01:03:49.415Z,10.50
2023-01-23T01:06:16.120Z,12.30
2023-01-23T01:08:43.015Z,11.10
2023-01-23T01:11:09.776Z,12.00
2023-01-23T01:13:36.759Z,11.10
2023-01-23T01:16:03.799Z,12.60
2023-01-23T01:18:30.698Z,11.40
2023-01-23T01:20:57.419Z,11.00
2023-01-23T01:23:24.920Z,11.80
2023-01-23T01:25:51.854Z,11.10
2023-01-23T01:28:18.727Z,11.60
2023-01-23T01:30:47.715Z,12.60
2023-01-23T01:33:14.758Z,12.40
2023-01-23T01:35:41.741Z,12.90
2023-01-23T01:38:09.261Z,12.20
2023-01-23T01:40:38.218Z,12.30
2023-01-23T01:43:15.158Z,12.80
2023-01-23T01:46:07.077Z,12.10
2023-01-23T01:48:58.756Z,13.10
2023-01-23T01:51:35.549Z,13.10
2023-01-23T01:54:24.555Z,12.90
2023-01-23T01:57:02.002Z,13.30
2023-01-23T01:59:30.734Z,11.40
2023-01-23T02:02:04.302Z,13.70
2023-01-23T02:04:33.439Z,12.90
2023-01-23T02:07:00.751Z,12.70
2023-01-23T02:09:27.902Z,13.10
2023-01-23T02:11:55.677Z,12.40
2023-01-23T02:14:25.167Z,14.30
2023-01-23T02:16:52.340Z,13.80
2023-01-23T02:19:44.942Z,14.10
2023-01-23T02:22:36.906Z,14.40
2023-01-23T02:25:15.922Z,14.20
2023-01-23T02:27:44.011Z,14.00
2023-01-23T02:30:11.573Z,12.70
2023-01-23T02:32:38.479Z,14.40
2023-01-23T02:35:10.276Z,13.30
2023-01-23T02:37:37.538Z,13.50
2023-01-23T02:40:06.961Z,13.30
2023-01-23T02:42:34.151Z,13.60
2023-01-23T02:45:00.887Z,12.60
2023-01-23T02:47:28.985Z,13.40
2023-01-23T02:49:56.053Z,11.90
2023-01-23T02:52:23.176Z,12.70
2023-01-23T02:54:50.097Z,12.70
2023-01-23T02:57:16.654Z,13.60
2023-01-23T03:00:02.352Z,12.90
2023-01-23T03:02:30.896Z,13.10
2023-01-23T03:04:57.981Z,13.20
2023-01-23T03:07:28.919Z,13.10
2023-01-23T03:09:55.897Z,12.70
2023-01-23T03:12:22.824Z,14.00
2023-01-23T03:14:53.710Z,13.80
2023-01-23T03:17:21.416Z,13.10
2023-01-23T03:19:48.464Z,13.50
2023-01-23T03:22:15.614Z,11.40
2023-01-23T03:24:42.660Z,14.50
2023-01-23T03:27:09.538Z,13.30
2023-01-23T03:29:58.884Z,12.20
2023-01-23T03:32:25.628Z,11.50
2023-01-23T03:34:52.885Z,12.60
2023-01-23T03:37:20.091Z,12.00
2023-01-23T03:40:06.219Z,12.30
2023-01-23T03:42:34.239Z,12.30
2023-01-23T03:45:01.746Z,12.00
2023-01-23T03:47:30.286Z,13.00
2023-01-23T03:49:56.979Z,14.30
2023-01-23T03:52:23.730Z,13.00
2023-01-23T03:54:51.220Z,11.50
2023-01-23T03:57:18.561Z,12.10
2023-01-23T03:59:48.099Z,11.90
2023-01-23T04:02:16.094Z,12.10
2023-01-23T04:04:43.260Z,11.90
2023-01-23T04:07:09.971Z,12.50
2023-01-23T04:09:37.610Z,11.90
2023-01-23T04:12:04.817Z,13.60
2023-01-23T04:14:36.903Z,12.50
2023-01-23T04:17:04.856Z,12.80
2023-01-23T04:19:32.041Z,11.70
2023-01-23T04:21:58.819Z,11.50
2023-01-23T04:24:25.862Z,14.20
2023-01-23T04:26:52.738Z,12.50
2023-01-23T04:29:19.783Z,12.10
2023-01-23T04:31:46.552Z,12.30
2023-01-23T04:34:13.472Z,12.70
2023-01-23T04:36:40.515Z,12.40
2023-01-23T04:39:07.512Z,13.10
2023-01-23T04:41:36.667Z,13.10
2023-01-23T04:44:21.397Z,12.80
2023-01-23T04:47:03.275Z,12.20
2023-01-23T04:49:30.022Z,12.40
2023-01-23T04:51:57.062Z,12.80
2023-01-23T04:54:24.801Z,12.30
2023-01-23T04:56:52.187Z,12.20
2023-01-23T04:59:20.040Z,11.30
2023-01-23T05:01:46.743Z,13.00
2023-01-23T05:04:13.509Z,11.50
2023-01-23T05:06:41.099Z,11.50
2023-01-23T05:09:07.735Z,12.30
2023-01-23T05:11:46.413Z,12.40
2023-01-23T05:14:13.327Z,11.70
2023-01-23T05:16:40.698Z,11.60
2023-01-23T05:19:29.041Z,11.60
2023-01-23T05:21:56.564Z,10.50
2023-01-23T05:24:23.221Z,12.10
2023-01-23T05:26:50.088Z,12.80
2023-01-23T05:29:18.017Z,11.30
2023-01-23T05:31:51.424Z,11.40
2023-01-23T05:34:36.595Z,12.80
2023-01-23T05:37:04.265Z,11.10
2023-01-23T05:39:33.765Z,12.10
2023-01-23T05:42:00.653Z,11.80
2023-01-23T05:44:46.353Z,11.50
2023-01-23T05:47:20.560Z,10.50
2023-01-23T05:49:48.503Z,13.40
2023-01-23T05:52:15.348Z,11.40
2023-01-23T05:54:44.302Z,12.80
2023-01-23T05:57:11.486Z,13.40
2023-01-23T05:59:56.680Z,12.70
2023-01-23T06:02:42.241Z,12.20
2023-01-23T06:05:44.254Z,11.40
2023-01-23T06:08:15.935Z,12.30
2023-01-23T06:10:45.932Z,11.40
2023-01-23T06:13:12.783Z,11.10
2023-01-23T06:15:39.609Z,10.80
2023-01-23T06:22:59.825Z,10.70
2023-01-23T06:25:27.557Z,9.60
2023-01-23T06:27:55.963Z,10.60
2023-01-23T06:30:23.694Z,11.40
2023-01-23T06:32:50.865Z,10.50
2023-01-23T06:35:20.821Z,9.40
2023-01-23T06:37:47.607Z,11.90
2023-01-23T06:40:16.570Z,9.40
2023-01-23T06:42:50.912Z,8.70
2023-01-23T06:45:18.672Z,9.90
2023-01-23T06:47:55.365Z,9.80
2023-01-23T06:50:22.950Z,8.70
2023-01-23T06:52:49.923Z,8.30
2023-01-23T06:55:21.992Z,10.30
2023-01-23T06:57:49.463Z,9.50
2023-01-23T07:00:16.507Z,10.30
2023-01-23T07:02:45.492Z,9.00
2023-01-23T07:05:12.739Z,8.90
2023-01-23T07:07:44.587Z,8.40
2023-01-23T07:10:11.435Z,8.50
2023-01-23T07:12:38.848Z,9.20
2023-01-23T07:15:08.758Z,9.50
2023-01-23T07:17:38.635Z,9.70
2023-01-23T07:20:06.093Z,10.10
2023-01-23T07:22:33.678Z,9.90
2023-01-23T07:25:00.569Z,9.10
2023-01-23T07:27:27.614Z,13.90
2023-01-23T07:29:54.374Z,9.60
2023-01-23T07:32:21.472Z,9.30
2023-01-23T07:34:48.396Z,10.50
2023-01-23T07:37:15.078Z,10.80
2023-01-23T07:39:41.641Z,10.40
2023-01-23T07:42:08.877Z,10.50
2023-01-23T07:44:35.702Z,10.80
2023-01-23T07:56:12.855Z,8.70
2023-01-23T07:58:39.534Z,9.00
2023-01-23T08:01:08.453Z,10.40
2023-01-23T08:03:35.168Z,10.30
2023-01-23T10:14:03.211Z,10.00
2023-01-23T10:16:57.188Z,10.90
2023-01-23T10:19:40.371Z,10.50
2023-01-23T10:22:35.788Z,10.90
2023-01-23T10:25:11.806Z,11.80
2023-01-23T10:27:41.717Z,12.00
2023-01-23T10:30:26.055Z,10.70
2023-01-23T10:32:55.966Z,11.10
2023-01-23T10:35:39.769Z,10.20
2023-01-23T10:38:26.491Z,12.20
2023-01-23T10:41:12.346Z,11.90
2023-01-23T10:43:40.346Z,12.10
2023-01-23T10:46:12.354Z,11.80
2023-01-23T10:48:46.225Z,12.70
2023-01-23T10:51:26.380Z,10.80
2023-01-23T10:54:04.608Z,12.60
2023-01-23T10:56:33.781Z,12.90
2023-01-23T10:59:01.230Z,11.30
2023-01-23T11:01:32.924Z,12.30
2023-01-23T11:04:11.108Z,12.70
2023-01-23T11:06:38.456Z,13.60
2023-01-23T11:09:17.758Z,14.30
2023-01-23T11:11:58.271Z,13.40
2023-01-23T11:14:25.359Z,14.00
2023-01-23T11:17:24.017Z,12.40
2023-01-23T11:19:53.069Z,12.20
2023-01-23T11:22:33.040Z,12.40
2023-01-23T11:25:01.444Z,12.60
2023-01-23T11:27:30.521Z,12.60
2023-01-23T11:30:16.196Z,12.60
2023-01-23T11:32:58.912Z,12.40
2023-01-23T11:35:48.214Z,13.80
2023-01-23T11:38:19.768Z,13.00
2023-01-23T11:40:51.291Z,13.80
2023-01-23T11:43:17.847Z,11.80
2023-01-23T11:46:03.895Z,12.50
2023-01-23T11:48:52.250Z,11.90
2023-01-23T11:51:29.492Z,12.70
2023-01-23T11:54:34.420Z,12.10
2023-01-23T11:57:13.639Z,11.10
2023-01-23T12:00:06.821Z,11.80
2023-01-23T12:02:54.548Z,11.20
2023-01-23T12:05:26.995Z,11.80
2023-01-23T12:08:15.526Z,11.80
2023-01-23T12:18:40.805Z,12.70
2023-01-23T12:21:22.956Z,12.30
2023-01-23T12:23:56.000Z,13.20
2023-01-23T12:26:22.875Z,12.10
2023-01-23T12:29:02.422Z,13.60
2023-01-23T12:31:32.503Z,12.10
2023-01-23T12:34:02.524Z,13.10
2023-01-23T12:36:44.174Z,12.90
2023-01-23T12:39:43.926Z,11.80
2023-01-23T12:42:14.546Z,12.90
2023-01-23T12:45:15.367Z,15.00
2023-01-23T12:47:45.166Z,13.20
2023-01-23T12:50:36.032Z,12.30
2023-01-23T12:53:10.104Z,13.90
2023-01-23T12:55:47.800Z,13.90
2023-01-23T12:58:16.861Z,18.70
2023-01-23T13:01:09.021Z,16.20
2023-01-23T13:03:54.548Z,15.40
2023-01-23T13:06:25.140Z,18.90
2023-01-23T13:09:05.461Z,21.50
2023-01-23T13:11:42.634Z,15.60
2023-01-23T13:14:32.781Z,15.40
2023-01-23T13:17:04.265Z,14.10
2023-01-23T13:19:50.767Z,13.00
2023-01-23T13:22:27.237Z,12.40
2023-01-23T13:25:12.808Z,11.50
2023-01-23T13:28:00.048Z,11.70
2023-01-23T13:30:27.293Z,11.90
2023-01-23T13:33:01.047Z,13.50
2023-01-23T13:35:40.279Z,14.60
2023-01-23T13:38:34.925Z,13.60
2023-01-23T13:41:04.852Z,12.40
2023-01-23T13:43:52.386Z,14.10
2023-01-23T13:46:32.538Z,12.70
2023-01-23T18:16:10.363Z,85.80
2023-01-23T18:18:39.529Z,79.90
2023-01-23T18:21:11.913Z,84.20
2023-01-23T18:23:39.237Z,92.20
2023-01-23T18:26:14.762Z,85.90
2023-01-23T18:28:44.679Z,126.00
2023-01-23T18:31:16.358Z,153.40
2023-01-23T18:34:17.285Z,117.60
2023-01-23T18:37:11.021Z,167.50
2023-01-23T18:40:12.768Z,179.40
2023-01-23T18:42:42.526Z,146.10
2023-01-23T18:45:13.866Z,193.20
2023-01-23T18:47:42.378Z,177.30
2023-01-23T18:50:14.838Z,151.50
2023-01-23T18:52:54.479Z,134.80
2023-01-23T18:55:44.496Z,129.80
2023-01-23T18:58:43.762Z,125.50
2023-01-23T19:01:32.171Z,117.30
2023-01-23T19:03:59.507Z,117.60
2023-01-23T19:06:26.707Z,132.50
2023-01-23T19:08:55.555Z,113.80
2023-01-23T19:11:40.206Z,131.00
2023-01-23T19:14:10.651Z,134.80
2023-01-23T19:16:54.174Z,120.30
2023-01-23T19:19:43.904Z,124.60
2023-01-23T19:22:11.606Z,131.20
2023-01-23T19:24:39.236Z,136.00
2023-01-23T19:27:35.825Z,136.50
2023-01-23T19:30:04.259Z,123.20
2023-01-23T19:32:33.481Z,119.80
2023-01-23T19:35:13.400Z,115.00
2023-01-23T19:37:41.315Z,89.70
2023-01-23T19:40:10.177Z,87.80
2023-01-23T19:42:52.306Z,64.60
2023-01-23T19:45:28.432Z,56.30
2023-01-23T19:48:02.439Z,67.10
2023-01-23T19:50:30.107Z,69.20
2023-01-23T19:52:59.723Z,69.70
2023-01-23T19:55:30.512Z,73.80
2023-01-23T19:57:57.604Z,68.30
2023-01-23T20:00:30.480Z,65.80
2023-01-23T20:02:58.265Z,66.70
2023-01-23T20:05:25.663Z,58.80
2023-01-23T20:07:54.163Z,55.60
2023-01-23T20:10:21.962Z,58.10
2023-01-23T22:41:37.152Z,16.90
2023-01-23T22:44:04.441Z,23.10
2023-01-23T22:46:31.761Z,22.20
2023-01-23T22:48:58.504Z,26.90
2023-01-23T22:51:29.754Z,20.20
2023-01-23T22:53:57.356Z,18.20
2023-01-23T22:56:24.747Z,17.70
2023-01-23T22:58:52.609Z,21.50
2023-01-23T23:01:19.732Z,18.60
2023-01-23T23:03:46.631Z,16.80
2023-01-23T23:06:15.222Z,18.40
2023-01-23T23:08:45.090Z,19.70
2023-01-23T23:11:18.514Z,16.00
2023-01-23T23:13:45.643Z,14.30
2023-01-23T23:16:21.602Z,14.40
2023-01-23T23:18:50.498Z,12.90
2023-01-23T23:21:19.138Z,13.60
2023-01-23T23:23:46.242Z,13.10
2023-01-23T23:26:13.326Z,17.10
2023-01-23T23:28:42.395Z,15.70
2023-01-23T23:31:09.254Z,14.80
2023-01-23T23:33:36.042Z,13.20
2023-01-23T23:36:02.800Z,14.80
2023-01-23T23:38:29.669Z,14.50
2023-01-23T23:40:57.656Z,14.10
2023-01-23T23:43:25.910Z,14.20
2023-01-23T23:45:56.494Z,13.50
2023-01-23T23:48:23.471Z,12.40
2023-01-23T23:50:50.190Z,11.60
2023-01-23T23:53:17.463Z,11.40
2023-01-23T23:55:44.720Z,15.50
2023-01-23T23:58:11.819Z,13.80
